sensor_id;sensor_type;location;lat;lon;timestamp;P1;durP1;ratioP1;P2;durP2;ratioP2
25950;SDS011;13748;52.240;6.002;2022-10-31T00:01:00;17.27;;;8.57;;
25950;SDS011;13748;52.240;6.002;2022-10-31T00:03:27;13.83;;;7.87;;
25950;SDS011;13748;52.240;6.002;2022-10-31T00:05:54;18.80;;;8.60;;
25950;SDS011;13748;52.240;6.002;2022-10-31T00:08:21;15.70;;;7.80;;
25950;SDS011;13748;52.240;6.002;2022-10-31T00:10:47;15.30;;;8.27;;
25950;SDS011;13748;52.240;6.002;2022-10-31T00:13:15;14.63;;;8.83;;
25950;SDS011;13748;52.240;6.002;2022-10-31T00:15:42;14.93;;;8.43;;
25950;SDS011;13748;52.240;6.002;2022-10-31T00:18:09;20.47;;;8.93;;
25950;SDS011;13748;52.240;6.002;2022-10-31T00:20:36;14.83;;;7.73;;
25950;SDS011;13748;52.240;6.002;2022-10-31T00:23:04;17.83;;;9.10;;
25950;SDS011;13748;52.240;6.002;2022-10-31T00:25:36;15.50;;;8.77;;
25950;SDS011;13748;52.240;6.002;2022-10-31T00:28:04;19.43;;;9.07;;
25950;SDS011;13748;52.240;6.002;2022-10-31T00:30:32;15.47;;;9.13;;
25950;SDS011;13748;52.240;6.002;2022-10-31T00:33:00;14.73;;;8.60;;
25950;SDS011;13748;52.240;6.002;2022-10-31T00:35:31;17.77;;;8.97;;
25950;SDS011;13748;52.240;6.002;2022-10-31T00:37:58;16.90;;;9.43;;
25950;SDS011;13748;52.240;6.002;2022-10-31T00:40:25;17.43;;;8.63;;
25950;SDS011;13748;52.240;6.002;2022-10-31T00:42:52;20.37;;;10.70;;
25950;SDS011;13748;52.240;6.002;2022-10-31T00:45:19;17.80;;;8.93;;
25950;SDS011;13748;52.240;6.002;2022-10-31T00:47:45;14.73;;;8.57;;
25950;SDS011;13748;52.240;6.002;2022-10-31T00:50:12;17.53;;;8.47;;
25950;SDS011;13748;52.240;6.002;2022-10-31T00:52:39;13.03;;;8.13;;
25950;SDS011;13748;52.240;6.002;2022-10-31T00:55:06;15.27;;;7.90;;
25950;SDS011;13748;52.240;6.002;2022-10-31T00:57:33;14.10;;;8.40;;
25950;SDS011;13748;52.240;6.002;2022-10-31T00:59:59;16.50;;;8.97;;
25950;SDS011;13748;52.240;6.002;2022-10-31T01:02:26;14.23;;;8.53;;
25950;SDS011;13748;52.240;6.002;2022-10-31T01:04:53;17.57;;;8.30;;
25950;SDS011;13748;52.240;6.002;2022-10-31T01:07:20;16.40;;;7.77;;
25950;SDS011;13748;52.240;6.002;2022-10-31T01:09:47;14.57;;;8.20;;
25950;SDS011;13748;52.240;6.002;2022-10-31T01:12:13;15.00;;;8.57;;
25950;SDS011;13748;52.240;6.002;2022-10-31T01:14:44;20.30;;;8.47;;
25950;SDS011;13748;52.240;6.002;2022-10-31T01:17:11;15.97;;;8.27;;
25950;SDS011;13748;52.240;6.002;2022-10-31T01:19:39;16.73;;;9.23;;
25950;SDS011;13748;52.240;6.002;2022-10-31T01:22:06;15.07;;;8.37;;
25950;SDS011;13748;52.240;6.002;2022-10-31T01:24:33;19.93;;;9.80;;
25950;SDS011;13748;52.240;6.002;2022-10-31T01:26:59;16.57;;;9.20;;
25950;SDS011;13748;52.240;6.002;2022-10-31T01:29:26;18.03;;;8.80;;
25950;SDS011;13748;52.240;6.002;2022-10-31T01:31:53;17.20;;;9.10;;
25950;SDS011;13748;52.240;6.002;2022-10-31T01:34:20;17.23;;;8.93;;
25950;SDS011;13748;52.240;6.002;2022-10-31T01:36:47;18.90;;;10.37;;
25950;SDS011;13748;52.240;6.002;2022-10-31T01:39:17;19.67;;;9.60;;
25950;SDS011;13748;52.240;6.002;2022-10-31T01:41:46;14.30;;;9.20;;
25950;SDS011;13748;52.240;6.002;2022-10-31T01:46:43;19.67;;;9.47;;
25950;SDS011;13748;52.240;6.002;2022-10-31T01:52:03;18.20;;;9.20;;
25950;SDS011;13748;52.240;6.002;2022-10-31T01:54:35;15.53;;;9.17;;
25950;SDS011;13748;52.240;6.002;2022-10-31T01:57:06;15.00;;;9.17;;
25950;SDS011;13748;52.240;6.002;2022-10-31T01:59:37;15.70;;;8.87;;
25950;SDS011;13748;52.240;6.002;2022-10-31T02:02:08;19.00;;;9.50;;
25950;SDS011;13748;52.240;6.002;2022-10-31T02:04:36;15.87;;;10.17;;
25950;SDS011;13748;52.240;6.002;2022-10-31T02:07:10;18.60;;;10.10;;
25950;SDS011;13748;52.240;6.002;2022-10-31T02:09:43;17.93;;;9.90;;
25950;SDS011;13748;52.240;6.002;2022-10-31T02:12:12;20.33;;;10.30;;
25950;SDS011;13748;52.240;6.002;2022-10-31T02:14:39;16.40;;;11.33;;
25950;SDS011;13748;52.240;6.002;2022-10-31T02:17:07;17.93;;;10.47;;
25950;SDS011;13748;52.240;6.002;2022-10-31T02:22:09;20.83;;;11.93;;
25950;SDS011;13748;52.240;6.002;2022-10-31T02:24:50;19.87;;;11.50;;
25950;SDS011;13748;52.240;6.002;2022-10-31T02:33:22;23.80;;;12.40;;
25950;SDS011;13748;52.240;6.002;2022-10-31T02:36:22;21.60;;;11.90;;
25950;SDS011;13748;52.240;6.002;2022-10-31T02:46:59;23.17;;;12.77;;
25950;SDS011;13748;52.240;6.002;2022-10-31T02:49:33;26.93;;;13.40;;
25950;SDS011;13748;52.240;6.002;2022-10-31T02:52:21;23.10;;;12.33;;
25950;SDS011;13748;52.240;6.002;2022-10-31T02:54:51;24.40;;;13.27;;
25950;SDS011;13748;52.240;6.002;2022-10-31T02:57:25;27.83;;;15.90;;
25950;SDS011;13748;52.240;6.002;2022-10-31T03:00:07;27.10;;;15.00;;
25950;SDS011;13748;52.240;6.002;2022-10-31T03:10:47;32.97;;;17.23;;
25950;SDS011;13748;52.240;6.002;2022-10-31T03:15:53;30.53;;;16.70;;
25950;SDS011;13748;52.240;6.002;2022-10-31T03:23:33;28.47;;;16.27;;
25950;SDS011;13748;52.240;6.002;2022-10-31T03:26:02;31.20;;;17.93;;
25950;SDS011;13748;52.240;6.002;2022-10-31T03:28:37;25.50;;;14.60;;
25950;SDS011;13748;52.240;6.002;2022-10-31T03:31:22;30.20;;;15.60;;
25950;SDS011;13748;52.240;6.002;2022-10-31T03:33:52;32.77;;;16.77;;
25950;SDS011;13748;52.240;6.002;2022-10-31T03:36:22;36.90;;;18.53;;
25950;SDS011;13748;52.240;6.002;2022-10-31T03:38:49;31.73;;;16.57;;
25950;SDS011;13748;52.240;6.002;2022-10-31T03:41:21;29.50;;;16.53;;
25950;SDS011;13748;52.240;6.002;2022-10-31T03:43:54;37.27;;;19.50;;
25950;SDS011;13748;52.240;6.002;2022-10-31T03:46:24;41.37;;;16.70;;
25950;SDS011;13748;52.240;6.002;2022-10-31T03:48:51;32.37;;;17.63;;
25950;SDS011;13748;52.240;6.002;2022-10-31T03:51:21;30.50;;;17.37;;
25950;SDS011;13748;52.240;6.002;2022-10-31T03:53:55;42.13;;;20.50;;
25950;SDS011;13748;52.240;6.002;2022-10-31T03:56:36;33.27;;;18.47;;
25950;SDS011;13748;52.240;6.002;2022-10-31T03:59:09;35.23;;;18.17;;
25950;SDS011;13748;52.240;6.002;2022-10-31T04:01:44;40.10;;;19.13;;
25950;SDS011;13748;52.240;6.002;2022-10-31T04:04:15;40.77;;;20.73;;
25950;SDS011;13748;52.240;6.002;2022-10-31T04:06:43;37.00;;;18.60;;
25950;SDS011;13748;52.240;6.002;2022-10-31T04:09:12;34.93;;;18.37;;
25950;SDS011;13748;52.240;6.002;2022-10-31T04:11:42;37.13;;;18.20;;
25950;SDS011;13748;52.240;6.002;2022-10-31T04:14:15;29.20;;;16.37;;
25950;SDS011;13748;52.240;6.002;2022-10-31T04:16:42;36.20;;;18.10;;
25950;SDS011;13748;52.240;6.002;2022-10-31T04:19:10;35.07;;;17.17;;
25950;SDS011;13748;52.240;6.002;2022-10-31T04:21:38;35.77;;;17.97;;
25950;SDS011;13748;52.240;6.002;2022-10-31T04:24:05;33.03;;;16.97;;
25950;SDS011;13748;52.240;6.002;2022-10-31T04:26:32;33.43;;;16.90;;
25950;SDS011;13748;52.240;6.002;2022-10-31T04:28:58;31.53;;;17.70;;
25950;SDS011;13748;52.240;6.002;2022-10-31T04:31:25;32.60;;;17.43;;
25950;SDS011;13748;52.240;6.002;2022-10-31T04:33:52;33.17;;;16.93;;
25950;SDS011;13748;52.240;6.002;2022-10-31T04:36:19;35.20;;;17.27;;
25950;SDS011;13748;52.240;6.002;2022-10-31T04:38:46;30.07;;;16.23;;
25950;SDS011;13748;52.240;6.002;2022-10-31T04:41:12;32.50;;;17.80;;
25950;SDS011;13748;52.240;6.002;2022-10-31T04:43:39;31.97;;;17.37;;
25950;SDS011;13748;52.240;6.002;2022-10-31T04:46:06;30.17;;;15.60;;
25950;SDS011;13748;52.240;6.002;2022-10-31T04:48:33;27.63;;;14.27;;
25950;SDS011;13748;52.240;6.002;2022-10-31T04:51:00;27.53;;;15.53;;
25950;SDS011;13748;52.240;6.002;2022-10-31T04:53:28;30.03;;;15.93;;
25950;SDS011;13748;52.240;6.002;2022-10-31T04:55:57;27.83;;;14.40;;
25950;SDS011;13748;52.240;6.002;2022-10-31T04:58:25;31.00;;;15.83;;
25950;SDS011;13748;52.240;6.002;2022-10-31T05:00:52;27.97;;;15.27;;
25950;SDS011;13748;52.240;6.002;2022-10-31T05:03:19;29.33;;;15.67;;
25950;SDS011;13748;52.240;6.002;2022-10-31T05:05:46;30.77;;;16.27;;
25950;SDS011;13748;52.240;6.002;2022-10-31T05:08:14;30.50;;;17.20;;
25950;SDS011;13748;52.240;6.002;2022-10-31T05:10:41;28.63;;;16.30;;
25950;SDS011;13748;52.240;6.002;2022-10-31T05:13:07;29.07;;;16.63;;
25950;SDS011;13748;52.240;6.002;2022-10-31T05:15:37;29.17;;;16.43;;
25950;SDS011;13748;52.240;6.002;2022-10-31T05:18:04;24.83;;;15.30;;
25950;SDS011;13748;52.240;6.002;2022-10-31T05:20:31;30.73;;;16.13;;
25950;SDS011;13748;52.240;6.002;2022-10-31T05:22:58;32.23;;;16.83;;
25950;SDS011;13748;52.240;6.002;2022-10-31T05:25:26;31.70;;;15.87;;
25950;SDS011;13748;52.240;6.002;2022-10-31T05:27:55;32.50;;;15.93;;
25950;SDS011;13748;52.240;6.002;2022-10-31T05:30:24;30.43;;;15.17;;
25950;SDS011;13748;52.240;6.002;2022-10-31T05:32:53;32.07;;;17.07;;
25950;SDS011;13748;52.240;6.002;2022-10-31T05:35:24;39.53;;;19.67;;
25950;SDS011;13748;52.240;6.002;2022-10-31T05:37:53;35.60;;;17.57;;
25950;SDS011;13748;52.240;6.002;2022-10-31T05:40:21;32.87;;;16.93;;
25950;SDS011;13748;52.240;6.002;2022-10-31T05:42:50;36.43;;;19.50;;
25950;SDS011;13748;52.240;6.002;2022-10-31T05:45:18;38.83;;;20.67;;
25950;SDS011;13748;52.240;6.002;2022-10-31T05:47:55;35.17;;;17.07;;
25950;SDS011;13748;52.240;6.002;2022-10-31T05:50:29;32.63;;;18.20;;
25950;SDS011;13748;52.240;6.002;2022-10-31T05:52:58;40.27;;;19.83;;
25950;SDS011;13748;52.240;6.002;2022-10-31T05:55:26;43.77;;;21.40;;
25950;SDS011;13748;52.240;6.002;2022-10-31T05:57:54;36.17;;;19.00;;
25950;SDS011;13748;52.240;6.002;2022-10-31T06:00:21;35.00;;;18.33;;
25950;SDS011;13748;52.240;6.002;2022-10-31T06:02:49;41.43;;;19.43;;
25950;SDS011;13748;52.240;6.002;2022-10-31T06:05:23;34.90;;;19.90;;
25950;SDS011;13748;52.240;6.002;2022-10-31T06:07:49;35.03;;;19.53;;
25950;SDS011;13748;52.240;6.002;2022-10-31T06:10:16;39.03;;;18.90;;
25950;SDS011;13748;52.240;6.002;2022-10-31T06:12:45;35.83;;;19.43;;
25950;SDS011;13748;52.240;6.002;2022-10-31T06:15:12;33.10;;;18.73;;
25950;SDS011;13748;52.240;6.002;2022-10-31T06:17:39;34.30;;;17.03;;
25950;SDS011;13748;52.240;6.002;2022-10-31T06:20:06;28.07;;;15.17;;
25950;SDS011;13748;52.240;6.002;2022-10-31T06:22:33;32.17;;;17.23;;
25950;SDS011;13748;52.240;6.002;2022-10-31T06:25:00;34.27;;;17.30;;
25950;SDS011;13748;52.240;6.002;2022-10-31T06:27:27;33.80;;;17.23;;
25950;SDS011;13748;52.240;6.002;2022-10-31T06:29:54;28.40;;;17.00;;
25950;SDS011;13748;52.240;6.002;2022-10-31T06:32:20;34.67;;;16.50;;
25950;SDS011;13748;52.240;6.002;2022-10-31T06:34:47;32.43;;;16.93;;
25950;SDS011;13748;52.240;6.002;2022-10-31T06:37:14;29.03;;;16.13;;
25950;SDS011;13748;52.240;6.002;2022-10-31T06:39:41;27.83;;;16.53;;
25950;SDS011;13748;52.240;6.002;2022-10-31T06:42:08;24.80;;;14.50;;
25950;SDS011;13748;52.240;6.002;2022-10-31T06:44:35;30.07;;;15.53;;
25950;SDS011;13748;52.240;6.002;2022-10-31T06:47:02;27.23;;;15.23;;
25950;SDS011;13748;52.240;6.002;2022-10-31T06:49:28;29.53;;;17.13;;
25950;SDS011;13748;52.240;6.002;2022-10-31T06:51:55;27.10;;;15.70;;
25950;SDS011;13748;52.240;6.002;2022-10-31T06:54:22;30.83;;;16.13;;
25950;SDS011;13748;52.240;6.002;2022-10-31T06:56:49;32.07;;;16.67;;
25950;SDS011;13748;52.240;6.002;2022-10-31T06:59:16;36.83;;;17.67;;
25950;SDS011;13748;52.240;6.002;2022-10-31T07:01:42;32.97;;;18.53;;
25950;SDS011;13748;52.240;6.002;2022-10-31T07:04:10;32.77;;;17.30;;
25950;SDS011;13748;52.240;6.002;2022-10-31T07:06:37;34.87;;;18.20;;
25950;SDS011;13748;52.240;6.002;2022-10-31T07:09:04;29.43;;;16.23;;
25950;SDS011;13748;52.240;6.002;2022-10-31T07:11:31;30.50;;;16.87;;
25950;SDS011;13748;52.240;6.002;2022-10-31T07:13:58;31.97;;;16.93;;
25950;SDS011;13748;52.240;6.002;2022-10-31T07:16:25;26.60;;;16.33;;
25950;SDS011;13748;52.240;6.002;2022-10-31T07:18:52;29.13;;;17.73;;
25950;SDS011;13748;52.240;6.002;2022-10-31T07:21:19;27.87;;;16.37;;
25950;SDS011;13748;52.240;6.002;2022-10-31T07:23:48;35.03;;;19.73;;
25950;SDS011;13748;52.240;6.002;2022-10-31T07:26:15;33.77;;;19.40;;
25950;SDS011;13748;52.240;6.002;2022-10-31T07:28:42;33.77;;;18.17;;
25950;SDS011;13748;52.240;6.002;2022-10-31T07:31:09;30.00;;;17.67;;
25950;SDS011;13748;52.240;6.002;2022-10-31T07:33:36;29.77;;;18.13;;
25950;SDS011;13748;52.240;6.002;2022-10-31T07:36:03;26.53;;;16.07;;
25950;SDS011;13748;52.240;6.002;2022-10-31T07:38:30;33.30;;;18.97;;
25950;SDS011;13748;52.240;6.002;2022-10-31T07:40:57;37.43;;;20.87;;
25950;SDS011;13748;52.240;6.002;2022-10-31T07:43:23;36.63;;;21.07;;
25950;SDS011;13748;52.240;6.002;2022-10-31T07:45:52;39.33;;;22.10;;
25950;SDS011;13748;52.240;6.002;2022-10-31T07:48:20;44.50;;;24.57;;
25950;SDS011;13748;52.240;6.002;2022-10-31T07:50:47;49.03;;;25.27;;
25950;SDS011;13748;52.240;6.002;2022-10-31T07:53:14;62.30;;;29.90;;
25950;SDS011;13748;52.240;6.002;2022-10-31T07:55:41;93.53;;;33.30;;
25950;SDS011;13748;52.240;6.002;2022-10-31T07:58:10;150.67;;;38.17;;
25950;SDS011;13748;52.240;6.002;2022-10-31T08:00:42;146.70;;;39.37;;
25950;SDS011;13748;52.240;6.002;2022-10-31T08:03:11;147.70;;;39.63;;
25950;SDS011;13748;52.240;6.002;2022-10-31T08:05:40;120.30;;;42.47;;
25950;SDS011;13748;52.240;6.002;2022-10-31T08:08:07;165.17;;;41.83;;
25950;SDS011;13748;52.240;6.002;2022-10-31T08:10:35;147.57;;;40.67;;
25950;SDS011;13748;52.240;6.002;2022-10-31T08:13:03;111.33;;;40.30;;
25950;SDS011;13748;52.240;6.002;2022-10-31T08:15:32;118.17;;;38.03;;
25950;SDS011;13748;52.240;6.002;2022-10-31T08:18:03;111.53;;;37.20;;
25950;SDS011;13748;52.240;6.002;2022-10-31T08:20:30;122.77;;;36.33;;
25950;SDS011;13748;52.240;6.002;2022-10-31T08:23:01;102.97;;;37.37;;
25950;SDS011;13748;52.240;6.002;2022-10-31T08:25:30;93.23;;;35.57;;
25950;SDS011;13748;52.240;6.002;2022-10-31T08:28:04;94.60;;;34.43;;
25950;SDS011;13748;52.240;6.002;2022-10-31T08:30:32;102.57;;;35.47;;
25950;SDS011;13748;52.240;6.002;2022-10-31T08:33:06;82.77;;;33.73;;
25950;SDS011;13748;52.240;6.002;2022-10-31T08:35:40;72.30;;;32.50;;
25950;SDS011;13748;52.240;6.002;2022-10-31T08:38:09;64.23;;;31.47;;
25950;SDS011;13748;52.240;6.002;2022-10-31T08:40:37;61.20;;;31.37;;
25950;SDS011;13748;52.240;6.002;2022-10-31T08:43:14;60.17;;;32.10;;
25950;SDS011;13748;52.240;6.002;2022-10-31T08:45:43;70.57;;;31.93;;
25950;SDS011;13748;52.240;6.002;2022-10-31T08:48:11;54.40;;;29.57;;
25950;SDS011;13748;52.240;6.002;2022-10-31T08:50:39;60.10;;;30.90;;
25950;SDS011;13748;52.240;6.002;2022-10-31T08:53:17;59.83;;;32.27;;
25950;SDS011;13748;52.240;6.002;2022-10-31T08:55:45;58.93;;;29.73;;
25950;SDS011;13748;52.240;6.002;2022-10-31T08:58:13;60.70;;;31.13;;
25950;SDS011;13748;52.240;6.002;2022-10-31T09:00:44;53.87;;;30.43;;
25950;SDS011;13748;52.240;6.002;2022-10-31T09:03:31;51.00;;;29.73;;
25950;SDS011;13748;52.240;6.002;2022-10-31T09:05:59;48.27;;;27.80;;
25950;SDS011;13748;52.240;6.002;2022-10-31T09:08:28;46.57;;;28.67;;
25950;SDS011;13748;52.240;6.002;2022-10-31T09:10:56;45.47;;;27.57;;
25950;SDS011;13748;52.240;6.002;2022-10-31T09:13:23;42.83;;;27.40;;
25950;SDS011;13748;52.240;6.002;2022-10-31T09:15:53;44.37;;;27.53;;
25950;SDS011;13748;52.240;6.002;2022-10-31T09:18:22;42.40;;;26.47;;
25950;SDS011;13748;52.240;6.002;2022-10-31T09:20:49;45.33;;;27.63;;
25950;SDS011;13748;52.240;6.002;2022-10-31T09:23:20;44.37;;;27.67;;
25950;SDS011;13748;52.240;6.002;2022-10-31T09:25:49;42.03;;;25.90;;
25950;SDS011;13748;52.240;6.002;2022-10-31T09:28:19;43.37;;;26.73;;
25950;SDS011;13748;52.240;6.002;2022-10-31T09:30:48;41.40;;;25.33;;
25950;SDS011;13748;52.240;6.002;2022-10-31T09:33:16;48.10;;;27.73;;
25950;SDS011;13748;52.240;6.002;2022-10-31T09:35:43;43.03;;;27.33;;
25950;SDS011;13748;52.240;6.002;2022-10-31T09:38:11;47.13;;;27.77;;
25950;SDS011;13748;52.240;6.002;2022-10-31T09:40:42;42.13;;;26.37;;
25950;SDS011;13748;52.240;6.002;2022-10-31T09:51:54;45.33;;;27.20;;
25950;SDS011;13748;52.240;6.002;2022-10-31T09:54:34;43.90;;;25.43;;
25950;SDS011;13748;52.240;6.002;2022-10-31T09:57:25;45.70;;;25.73;;
25950;SDS011;13748;52.240;6.002;2022-10-31T09:59:54;42.60;;;25.43;;
25950;SDS011;13748;52.240;6.002;2022-10-31T10:02:43;44.37;;;26.70;;
25950;SDS011;13748;52.240;6.002;2022-10-31T10:05:32;49.33;;;28.87;;
25950;SDS011;13748;52.240;6.002;2022-10-31T10:08:07;49.27;;;28.57;;
25950;SDS011;13748;52.240;6.002;2022-10-31T10:10:43;50.10;;;30.50;;
25950;SDS011;13748;52.240;6.002;2022-10-31T10:16:16;56.50;;;32.60;;
25950;SDS011;13748;52.240;6.002;2022-10-31T10:24:51;56.73;;;33.70;;
25950;SDS011;13748;52.240;6.002;2022-10-31T10:27:51;45.33;;;30.13;;
25950;SDS011;13748;52.240;6.002;2022-10-31T10:33:22;46.58;;;27.75;;
25950;SDS011;13748;52.240;6.002;2022-10-31T10:35:59;52.58;;;28.92;;
25950;SDS011;13748;52.240;6.002;2022-10-31T10:41:28;46.72;;;26.90;;
25950;SDS011;13748;52.240;6.002;2022-10-31T10:44:00;40.33;;;24.83;;
25950;SDS011;13748;52.240;6.002;2022-10-31T10:49:40;42.03;;;23.60;;
25950;SDS011;13748;52.240;6.002;2022-10-31T10:58:04;34.85;;;22.08;;
25950;SDS011;13748;52.240;6.002;2022-10-31T11:00:46;34.67;;;21.55;;
25950;SDS011;13748;52.240;6.002;2022-10-31T11:03:14;33.20;;;20.52;;
25950;SDS011;13748;52.240;6.002;2022-10-31T11:05:52;33.22;;;20.05;;
25950;SDS011;13748;52.240;6.002;2022-10-31T11:08:23;31.05;;;18.85;;
25950;SDS011;13748;52.240;6.002;2022-10-31T11:11:00;30.73;;;18.80;;
25950;SDS011;13748;52.240;6.002;2022-10-31T11:13:36;31.88;;;19.42;;
25950;SDS011;13748;52.240;6.002;2022-10-31T11:16:08;33.17;;;19.60;;
25950;SDS011;13748;52.240;6.002;2022-10-31T11:18:39;31.40;;;19.85;;
25950;SDS011;13748;52.240;6.002;2022-10-31T11:21:19;31.45;;;19.38;;
25950;SDS011;13748;52.240;6.002;2022-10-31T11:24:01;32.30;;;20.77;;
25950;SDS011;13748;52.240;6.002;2022-10-31T11:26:29;31.02;;;20.02;;
25950;SDS011;13748;52.240;6.002;2022-10-31T11:28:59;31.70;;;18.83;;
25950;SDS011;13748;52.240;6.002;2022-10-31T11:31:26;33.67;;;19.40;;
25950;SDS011;13748;52.240;6.002;2022-10-31T11:36:39;27.48;;;17.77;;
25950;SDS011;13748;52.240;6.002;2022-10-31T11:39:18;26.45;;;16.17;;
25950;SDS011;13748;52.240;6.002;2022-10-31T11:41:48;25.98;;;15.32;;
25950;SDS011;13748;52.240;6.002;2022-10-31T11:44:17;29.73;;;15.52;;
25950;SDS011;13748;52.240;6.002;2022-10-31T11:46:59;26.35;;;15.15;;
25950;SDS011;13748;52.240;6.002;2022-10-31T11:52:06;22.92;;;13.80;;
25950;SDS011;13748;52.240;6.002;2022-10-31T11:57:26;24.27;;;12.38;;
25950;SDS011;13748;52.240;6.002;2022-10-31T12:00:00;24.73;;;13.15;;
25950;SDS011;13748;52.240;6.002;2022-10-31T12:02:30;23.60;;;13.32;;
25950;SDS011;13748;52.240;6.002;2022-10-31T12:04:59;24.55;;;13.88;;
25950;SDS011;13748;52.240;6.002;2022-10-31T12:07:31;25.40;;;15.07;;
25950;SDS011;13748;52.240;6.002;2022-10-31T12:09:58;25.25;;;14.77;;
25950;SDS011;13748;52.240;6.002;2022-10-31T12:12:36;26.80;;;14.60;;
25950;SDS011;13748;52.240;6.002;2022-10-31T12:15:31;29.48;;;15.38;;
25950;SDS011;13748;52.240;6.002;2022-10-31T12:26:30;41.90;;;19.92;;
25950;SDS011;13748;52.240;6.002;2022-10-31T12:32:12;36.92;;;19.90;;
25950;SDS011;13748;52.240;6.002;2022-10-31T12:37:28;40.90;;;20.45;;
25950;SDS011;13748;52.240;6.002;2022-10-31T12:45:18;41.20;;;21.52;;
25950;SDS011;13748;52.240;6.002;2022-10-31T12:48:15;37.88;;;20.73;;
25950;SDS011;13748;52.240;6.002;2022-10-31T12:53:44;40.42;;;20.48;;
25950;SDS011;13748;52.240;6.002;2022-10-31T12:56:43;41.72;;;21.58;;
25950;SDS011;13748;52.240;6.002;2022-10-31T13:01:48;36.05;;;19.77;;
25950;SDS011;13748;52.240;6.002;2022-10-31T13:07:29;41.05;;;20.08;;
25950;SDS011;13748;52.240;6.002;2022-10-31T13:10:22;42.35;;;20.33;;
25950;SDS011;13748;52.240;6.002;2022-10-31T13:12:57;37.08;;;18.88;;
25950;SDS011;13748;52.240;6.002;2022-10-31T13:15:31;40.90;;;21.05;;
25950;SDS011;13748;52.240;6.002;2022-10-31T13:18:14;36.13;;;18.63;;
25950;SDS011;13748;52.240;6.002;2022-10-31T13:20:53;38.20;;;19.95;;
25950;SDS011;13748;52.240;6.002;2022-10-31T13:23:32;36.53;;;19.50;;
25950;SDS011;13748;52.240;6.002;2022-10-31T13:26:21;36.08;;;19.50;;
25950;SDS011;13748;52.240;6.002;2022-10-31T13:29:17;36.00;;;19.30;;
25950;SDS011;13748;52.240;6.002;2022-10-31T13:32:04;33.03;;;18.33;;
25950;SDS011;13748;52.240;6.002;2022-10-31T13:34:34;34.85;;;18.08;;
25950;SDS011;13748;52.240;6.002;2022-10-31T13:45:32;30.50;;;16.83;;
25950;SDS011;13748;52.240;6.002;2022-10-31T13:50:41;37.00;;;18.52;;
25950;SDS011;13748;52.240;6.002;2022-10-31T13:53:13;36.85;;;18.10;;
25950;SDS011;13748;52.240;6.002;2022-10-31T13:55:44;36.72;;;19.15;;
25950;SDS011;13748;52.240;6.002;2022-10-31T13:58:20;31.98;;;16.48;;
25950;SDS011;13748;52.240;6.002;2022-10-31T14:01:00;30.92;;;16.98;;
25950;SDS011;13748;52.240;6.002;2022-10-31T14:03:46;33.58;;;17.58;;
25950;SDS011;13748;52.240;6.002;2022-10-31T14:06:44;41.42;;;18.38;;
25950;SDS011;13748;52.240;6.002;2022-10-31T14:09:17;32.15;;;17.75;;
25950;SDS011;13748;52.240;6.002;2022-10-31T14:11:47;34.53;;;18.13;;
25950;SDS011;13748;52.240;6.002;2022-10-31T14:14:15;35.25;;;17.50;;
25950;SDS011;13748;52.240;6.002;2022-10-31T14:16:45;33.85;;;17.35;;
25950;SDS011;13748;52.240;6.002;2022-10-31T14:19:20;37.65;;;16.58;;
25950;SDS011;13748;52.240;6.002;2022-10-31T14:21:48;34.97;;;16.98;;
25950;SDS011;13748;52.240;6.002;2022-10-31T14:26:56;33.60;;;17.42;;
25950;SDS011;13748;52.240;6.002;2022-10-31T14:29:28;32.03;;;16.40;;
25950;SDS011;13748;52.240;6.002;2022-10-31T14:32:04;35.55;;;17.52;;
25950;SDS011;13748;52.240;6.002;2022-10-31T14:34:55;35.58;;;17.52;;
25950;SDS011;13748;52.240;6.002;2022-10-31T14:43:38;35.00;;;17.48;;
25950;SDS011;13748;52.240;6.002;2022-10-31T14:46:31;36.63;;;18.88;;
25950;SDS011;13748;52.240;6.002;2022-10-31T14:49:16;38.42;;;18.80;;
25950;SDS011;13748;52.240;6.002;2022-10-31T14:52:08;41.10;;;20.77;;
25950;SDS011;13748;52.240;6.002;2022-10-31T14:54:41;38.42;;;20.08;;
25950;SDS011;13748;52.240;6.002;2022-10-31T14:57:31;45.33;;;20.70;;
25950;SDS011;13748;52.240;6.002;2022-10-31T15:00:02;38.85;;;19.63;;
25950;SDS011;13748;52.240;6.002;2022-10-31T15:02:45;41.85;;;20.77;;
25950;SDS011;13748;52.240;6.002;2022-10-31T15:05:34;41.38;;;20.40;;
25950;SDS011;13748;52.240;6.002;2022-10-31T15:08:12;38.67;;;20.23;;
25950;SDS011;13748;52.240;6.002;2022-10-31T15:10:51;39.13;;;19.50;;
25950;SDS011;13748;52.240;6.002;2022-10-31T15:13:19;38.10;;;19.98;;
25950;SDS011;13748;52.240;6.002;2022-10-31T15:15:49;39.17;;;19.77;;
25950;SDS011;13748;52.240;6.002;2022-10-31T15:18:20;36.10;;;19.70;;
25950;SDS011;13748;52.240;6.002;2022-10-31T15:20:52;41.13;;;19.92;;
25950;SDS011;13748;52.240;6.002;2022-10-31T15:23:26;39.83;;;19.90;;
25950;SDS011;13748;52.240;6.002;2022-10-31T15:26:01;47.85;;;20.73;;
25950;SDS011;13748;52.240;6.002;2022-10-31T15:28:30;41.10;;;19.23;;
25950;SDS011;13748;52.240;6.002;2022-10-31T15:30:59;42.15;;;19.98;;
25950;SDS011;13748;52.240;6.002;2022-10-31T15:33:31;38.83;;;21.23;;
25950;SDS011;13748;52.240;6.002;2022-10-31T15:36:20;38.83;;;20.25;;
25950;SDS011;13748;52.240;6.002;2022-10-31T15:38:57;39.97;;;20.63;;
25950;SDS011;13748;52.240;6.002;2022-10-31T15:41:28;46.72;;;21.95;;
25950;SDS011;13748;52.240;6.002;2022-10-31T15:44:10;46.85;;;21.35;;
25950;SDS011;13748;52.240;6.002;2022-10-31T15:46:41;42.75;;;21.83;;
25950;SDS011;13748;52.240;6.002;2022-10-31T15:49:23;41.40;;;20.95;;
25950;SDS011;13748;52.240;6.002;2022-10-31T15:51:55;41.95;;;20.45;;
25950;SDS011;13748;52.240;6.002;2022-10-31T15:54:28;45.55;;;21.58;;
25950;SDS011;13748;52.240;6.002;2022-10-31T15:56:54;39.92;;;20.38;;
25950;SDS011;13748;52.240;6.002;2022-10-31T15:59:22;45.92;;;21.90;;
25950;SDS011;13748;52.240;6.002;2022-10-31T16:01:59;41.92;;;21.20;;
25950;SDS011;13748;52.240;6.002;2022-10-31T16:04:28;47.17;;;23.00;;
25950;SDS011;13748;52.240;6.002;2022-10-31T16:07:11;41.92;;;21.38;;
25950;SDS011;13748;52.240;6.002;2022-10-31T16:09:50;48.17;;;21.58;;
25950;SDS011;13748;52.240;6.002;2022-10-31T16:12:19;44.83;;;21.88;;
25950;SDS011;13748;52.240;6.002;2022-10-31T16:14:48;52.05;;;22.10;;
25950;SDS011;13748;52.240;6.002;2022-10-31T16:17:20;46.30;;;22.38;;
25950;SDS011;13748;52.240;6.002;2022-10-31T16:19:58;46.78;;;22.42;;
25950;SDS011;13748;52.240;6.002;2022-10-31T16:22:31;42.20;;;22.00;;
25950;SDS011;13748;52.240;6.002;2022-10-31T16:25:10;48.70;;;21.90;;
25950;SDS011;13748;52.240;6.002;2022-10-31T16:27:47;42.55;;;21.98;;
25950;SDS011;13748;52.240;6.002;2022-10-31T16:33:32;44.70;;;23.70;;
25950;SDS011;13748;52.240;6.002;2022-10-31T16:39:01;47.05;;;23.63;;
25950;SDS011;13748;52.240;6.002;2022-10-31T16:41:28;46.95;;;23.63;;
25950;SDS011;13748;52.240;6.002;2022-10-31T16:43:56;44.45;;;23.45;;
25950;SDS011;13748;52.240;6.002;2022-10-31T16:46:23;46.70;;;23.17;;
25950;SDS011;13748;52.240;6.002;2022-10-31T16:48:53;44.58;;;23.63;;
25950;SDS011;13748;52.240;6.002;2022-10-31T16:51:20;49.22;;;24.45;;
25950;SDS011;13748;52.240;6.002;2022-10-31T16:53:47;46.50;;;23.80;;
25950;SDS011;13748;52.240;6.002;2022-10-31T16:56:21;52.60;;;25.42;;
25950;SDS011;13748;52.240;6.002;2022-10-31T16:59:00;53.33;;;25.92;;
25950;SDS011;13748;52.240;6.002;2022-10-31T17:01:30;58.15;;;25.83;;